Terminal Aerodrome Forecast
Issued by NWS Wichita, KS

Home | Current Version | Previous Version | Text Only | Print | Product List | Glossary On
Versions: 1 2 3 4 5 6 7 8 9 10 11 12 13 14 15
000
FTUS43 KICT 031736
TAFICT
TAF
KICT 031736Z 0318/0418 15007KT P6SM SCT035 BKN080
     FM031900 17012G20KT P6SM SCT040
     FM040000 17012KT P6SM SCT080 BKN250
     FM041400 18015G25KT P6SM SCT080=

USA.gov is the U.S. government's official web portal to all federal, state and local government web resources and services.